createdAt,value
2018-04-22T00:00:50.563Z,13.81
2018-04-22T00:01:50.493Z,13.81
2018-04-22T00:02:50.419Z,13.91
2018-04-22T00:03:50.350Z,13.76
2018-04-22T00:04:50.279Z,13.78
2018-04-22T00:05:50.206Z,13.76
2018-04-22T00:06:50.123Z,13.68
2018-04-22T00:07:50.055Z,13.58
2018-04-22T00:08:49.975Z,13.71
2018-04-22T00:09:49.910Z,13.65
2018-04-22T00:10:49.830Z,13.61
2018-04-22T00:11:49.780Z,13.71
2018-04-22T00:12:49.685Z,13.74
2018-04-22T00:13:49.617Z,13.70
2018-04-22T00:14:49.536Z,13.84
2018-04-22T00:15:49.469Z,13.78
2018-04-22T00:16:49.390Z,13.91
2018-04-22T00:17:49.326Z,13.89
2018-04-22T00:18:49.251Z,13.89
2018-04-22T00:19:49.195Z,13.73
2018-04-22T00:20:49.098Z,13.73
2018-04-22T00:21:49.030Z,13.73
2018-04-22T00:22:48.955Z,13.66
2018-04-22T00:23:48.928Z,13.71
2018-04-22T00:24:48.800Z,13.71
2018-04-22T00:25:48.737Z,13.78
2018-04-22T00:26:48.652Z,13.66
2018-04-22T00:27:48.593Z,13.71
2018-04-22T00:28:48.502Z,13.59
2018-04-22T00:29:48.444Z,13.74
2018-04-22T00:30:48.359Z,13.68
2018-04-22T00:31:48.298Z,13.59
2018-04-22T00:32:48.218Z,13.58
2018-04-22T00:33:48.148Z,13.50
2018-04-22T00:34:48.071Z,13.53
2018-04-22T00:35:48.000Z,13.45
2018-04-22T00:36:47.917Z,13.45
2018-04-22T00:37:47.857Z,13.55
2018-04-22T00:38:47.772Z,13.56
2018-04-22T00:39:47.707Z,13.50
2018-04-22T00:40:47.625Z,13.50
2018-04-22T00:41:47.561Z,13.47
2018-04-22T00:42:47.485Z,13.40
2018-04-22T00:43:47.414Z,13.44
2018-04-22T00:44:47.330Z,13.45
2018-04-22T00:45:47.270Z,13.44
2018-04-22T00:46:47.188Z,13.41
2018-04-22T00:47:47.118Z,13.48
2018-04-22T00:48:47.036Z,13.37
2018-04-22T00:49:46.973Z,13.37
2018-04-22T00:50:46.890Z,13.37
2018-04-22T00:51:46.822Z,13.27
2018-04-22T00:52:46.744Z,13.25
2018-04-22T00:53:46.672Z,13.17
2018-04-22T00:54:46.594Z,13.06
2018-04-22T00:55:46.531Z,12.97
2018-04-22T00:56:46.446Z,12.89
2018-04-22T00:57:46.382Z,12.81
2018-04-22T00:58:46.298Z,12.88
2018-04-22T00:59:46.234Z,12.88
2018-04-22T01:00:46.152Z,12.84
2018-04-22T01:01:46.090Z,12.86
2018-04-22T01:02:46.023Z,12.86
2018-04-22T01:03:45.939Z,12.91
2018-04-22T01:04:45.857Z,12.94
2018-04-22T01:05:45.788Z,12.86
2018-04-22T01:06:45.708Z,12.86
2018-04-22T01:07:45.642Z,12.82
2018-04-22T01:08:45.562Z,12.91
2018-04-22T01:09:45.498Z,12.85
2018-04-22T01:10:45.421Z,13.02
2018-04-22T01:11:45.347Z,12.97
2018-04-22T01:12:45.267Z,13.00
2018-04-22T01:13:45.199Z,13.00
2018-04-22T01:14:45.116Z,13.00
2018-04-22T01:15:45.050Z,13.06
2018-04-22T01:16:44.972Z,12.94
2018-04-22T01:17:44.903Z,12.91
2018-04-22T01:18:44.821Z,12.86
2018-04-22T01:19:44.756Z,12.82
2018-04-22T01:20:44.674Z,12.78
2018-04-22T01:21:44.609Z,12.81
2018-04-22T01:22:44.528Z,12.70
2018-04-22T01:23:44.461Z,12.73
2018-04-22T01:24:44.379Z,12.73
2018-04-22T01:25:44.320Z,12.71
2018-04-22T01:26:44.233Z,12.77
2018-04-22T01:27:44.174Z,12.59
2018-04-22T01:28:44.083Z,12.53
2018-04-22T01:29:44.018Z,12.55
2018-04-22T01:30:43.941Z,12.48
2018-04-22T01:31:43.873Z,12.42
2018-04-22T01:32:43.795Z,12.41
2018-04-22T01:33:43.727Z,12.33
2018-04-22T01:34:43.640Z,12.13
2018-04-22T01:35:43.568Z,12.05
2018-04-22T01:36:43.501Z,12.06
2018-04-22T01:37:43.420Z,12.05
2018-04-22T01:38:43.357Z,12.03
2018-04-22T01:39:43.271Z,12.11
2018-04-22T01:40:43.204Z,12.02
2018-04-22T01:41:43.124Z,12.12
2018-04-22T01:42:43.060Z,12.16
2018-04-22T01:43:42.975Z,12.27
2018-04-22T01:44:42.912Z,12.31
2018-04-22T01:45:42.826Z,12.41
2018-04-22T01:46:42.763Z,12.42
2018-04-22T01:47:42.678Z,12.28
2018-04-22T01:48:42.610Z,12.34
2018-04-22T01:49:42.532Z,12.24
2018-04-22T01:50:42.462Z,12.18
2018-04-22T01:51:42.379Z,12.05
2018-04-22T01:52:42.313Z,11.98
2018-04-22T01:53:42.237Z,11.90
2018-04-22T01:54:42.165Z,11.89
2018-04-22T01:55:42.079Z,11.90
2018-04-22T01:56:42.017Z,11.69
2018-04-22T01:57:41.931Z,11.60
2018-04-22T01:58:41.864Z,11.51
2018-04-22T01:59:41.782Z,11.39
2018-04-22T02:00:41.715Z,11.36
2018-04-22T02:01:41.636Z,11.41
2018-04-22T02:02:41.565Z,11.32
2018-04-22T02:03:41.484Z,11.32
2018-04-22T02:04:41.419Z,11.36
2018-04-22T02:05:41.341Z,11.35
2018-04-22T02:06:41.267Z,11.38
2018-04-22T02:07:41.188Z,11.34
2018-04-22T02:08:41.125Z,11.42
2018-04-22T02:09:41.034Z,11.36
2018-04-22T02:10:40.969Z,11.57
2018-04-22T02:11:40.888Z,11.56
2018-04-22T02:12:40.817Z,11.60
2018-04-22T02:13:40.743Z,11.72
2018-04-22T02:14:40.670Z,11.76
2018-04-22T02:15:40.588Z,11.74
2018-04-22T02:16:40.521Z,11.79
2018-04-22T02:17:40.439Z,11.84
2018-04-22T02:18:40.371Z,11.86
2018-04-22T02:19:40.288Z,11.67
2018-04-22T02:20:40.222Z,11.61
2018-04-22T02:21:40.137Z,11.51
2018-04-22T02:22:40.080Z,11.42
2018-04-22T02:23:39.994Z,11.41
2018-04-22T02:24:39.924Z,11.26
2018-04-22T02:25:39.840Z,11.21
2018-04-22T02:26:39.773Z,11.06
2018-04-22T02:27:39.692Z,11.13
2018-04-22T02:28:39.618Z,11.14
2018-04-22T02:29:39.544Z,11.18
2018-04-22T02:30:39.475Z,11.08
2018-04-22T02:31:39.390Z,11.14
2018-04-22T02:32:39.327Z,11.05
2018-04-22T02:33:39.241Z,11.18
2018-04-22T02:34:39.172Z,11.18
2018-04-22T02:35:39.090Z,11.20
2018-04-22T02:36:40.023Z,11.16
2018-04-22T02:37:38.940Z,11.26
2018-04-22T02:38:38.872Z,11.35
2018-04-22T02:39:38.787Z,11.28
2018-04-22T02:40:38.722Z,11.34
2018-04-22T02:41:38.638Z,11.23
2018-04-22T02:42:38.570Z,11.14
2018-04-22T02:43:38.532Z,11.14
2018-04-22T02:44:38.421Z,10.98
2018-04-22T02:45:38.339Z,10.85
2018-04-22T02:46:38.271Z,10.87
2018-04-22T02:47:38.188Z,10.83
2018-04-22T02:48:38.120Z,10.92
2018-04-22T02:49:38.038Z,10.75
2018-04-22T02:50:37.973Z,10.75
2018-04-22T02:51:37.885Z,10.69
2018-04-22T02:52:37.820Z,10.67
2018-04-22T02:53:37.739Z,10.71
2018-04-22T02:54:37.669Z,10.63
2018-04-22T02:55:37.587Z,10.69
2018-04-22T02:56:37.525Z,10.73
2018-04-22T02:57:37.437Z,10.81
2018-04-22T02:58:37.369Z,10.91
2018-04-22T02:59:37.285Z,10.87
2018-04-22T03:00:37.223Z,10.87
2018-04-22T03:01:37.135Z,10.98
2018-04-22T03:02:37.067Z,11.05
2018-04-22T03:03:36.984Z,11.05
2018-04-22T03:04:36.920Z,11.02
2018-04-22T03:05:36.834Z,11.00
2018-04-22T03:06:36.766Z,10.99
2018-04-22T03:07:36.683Z,11.02
2018-04-22T03:08:36.618Z,10.95
2018-04-22T03:09:36.533Z,10.95
2018-04-22T03:10:36.464Z,10.85
2018-04-22T03:11:36.380Z,10.74
2018-04-22T03:12:36.311Z,10.74
2018-04-22T03:13:36.228Z,10.67
2018-04-22T03:14:36.162Z,10.69
2018-04-22T03:15:36.081Z,10.63
2018-04-22T03:16:36.009Z,10.73
2018-04-22T03:17:35.929Z,10.66
2018-04-22T03:18:35.863Z,10.69
2018-04-22T03:19:35.773Z,10.56
2018-04-22T03:20:35.713Z,10.59
2018-04-22T03:21:35.626Z,10.59
2018-04-22T03:22:35.558Z,10.58
2018-04-22T03:23:35.479Z,10.67
2018-04-22T03:24:35.410Z,10.60
2018-04-22T03:25:35.329Z,10.59
2018-04-22T03:26:35.256Z,10.55
2018-04-22T03:27:35.174Z,10.55
2018-04-22T03:28:35.106Z,10.56
2018-04-22T03:29:35.023Z,10.55
2018-04-22T03:30:34.955Z,10.58
2018-04-22T03:31:34.881Z,10.56
2018-04-22T03:32:34.805Z,10.55
2018-04-22T03:33:34.719Z,10.51
2018-04-22T03:34:34.656Z,10.41
2018-04-22T03:35:34.568Z,10.33
2018-04-22T03:36:34.503Z,10.21
2018-04-22T03:37:34.426Z,10.22
2018-04-22T03:38:34.353Z,10.19
2018-04-22T03:39:34.269Z,10.13
2018-04-22T03:40:34.300Z,10.10
2018-04-22T03:41:34.119Z,10.07
2018-04-22T03:42:34.102Z,10.18
2018-04-22T03:43:33.970Z,10.16
2018-04-22T03:44:33.903Z,10.18
2018-04-22T03:45:33.819Z,10.10
2018-04-22T03:46:33.747Z,10.16
2018-04-22T03:47:33.670Z,10.18
2018-04-22T03:48:33.598Z,10.16
2018-04-22T03:49:33.508Z,10.22
2018-04-22T03:50:33.446Z,10.11
2018-04-22T03:51:33.363Z,10.18
2018-04-22T03:52:33.294Z,10.06
2018-04-22T03:53:33.217Z,10.13
2018-04-22T03:54:33.144Z,10.08
2018-04-22T03:55:33.065Z,10.13
2018-04-22T03:56:32.993Z,10.10
2018-04-22T03:57:32.909Z,10.16
2018-04-22T03:58:32.843Z,10.21
2018-04-22T03:59:32.760Z,10.25
2018-04-22T04:00:32.691Z,10.22
2018-04-22T04:01:32.608Z,10.18
2018-04-22T04:02:32.604Z,10.25
2018-04-22T04:03:32.458Z,10.31
2018-04-22T04:04:32.424Z,10.23
2018-04-22T04:05:32.303Z,10.31
2018-04-22T04:06:32.324Z,10.25
2018-04-22T04:07:32.158Z,10.37
2018-04-22T04:08:32.131Z,10.37
2018-04-22T04:09:31.999Z,10.44
2018-04-22T04:10:31.939Z,10.37
2018-04-22T04:11:31.856Z,10.37
2018-04-22T04:12:31.855Z,10.23
2018-04-22T04:13:31.696Z,10.10
2018-04-22T04:14:31.665Z,10.11
2018-04-22T04:15:31.545Z,10.03
2018-04-22T04:16:31.477Z,10.07
2018-04-22T04:17:31.389Z,10.11
2018-04-22T04:18:31.378Z,10.00
2018-04-22T04:19:31.242Z,9.89
2018-04-22T04:20:31.186Z,9.92
2018-04-22T04:21:31.092Z,9.89
2018-04-22T04:22:31.021Z,9.89
2018-04-22T04:23:30.937Z,9.88
2018-04-22T04:24:30.907Z,9.92
2018-04-22T04:25:30.785Z,9.96
2018-04-22T04:26:30.818Z,9.97
2018-04-22T04:27:30.635Z,9.89
2018-04-22T04:28:30.624Z,9.92
2018-04-22T04:29:30.483Z,9.90
2018-04-22T04:30:30.437Z,9.96
2018-04-22T04:31:30.332Z,9.86
2018-04-22T04:32:30.343Z,10.01
2018-04-22T04:33:30.179Z,9.92
2018-04-22T04:34:30.152Z,10.04
2018-04-22T04:35:30.021Z,10.13
2018-04-22T04:36:30.063Z,10.13
2018-04-22T04:37:29.875Z,10.13
2018-04-22T04:38:29.869Z,10.13
2018-04-22T04:39:29.722Z,10.22
2018-04-22T04:40:29.682Z,10.19
2018-04-22T04:41:29.571Z,10.22
2018-04-22T04:42:29.590Z,10.16
2018-04-22T04:43:29.482Z,10.21
2018-04-22T04:44:29.397Z,10.10
2018-04-22T04:45:29.270Z,10.06
2018-04-22T04:46:29.210Z,10.10
2018-04-22T04:47:29.115Z,9.96
2018-04-22T04:48:29.050Z,9.98
2018-04-22T04:49:28.963Z,10.00
2018-04-22T04:50:28.904Z,9.85
2018-04-22T04:51:28.810Z,10.00
2018-04-22T04:52:28.741Z,10.03
2018-04-22T04:53:28.663Z,10.00
2018-04-22T04:54:28.650Z,10.03
2018-04-22T04:55:28.507Z,10.08
2018-04-22T04:56:28.442Z,10.08
2018-04-22T04:57:28.354Z,10.16
2018-04-22T04:58:28.286Z,10.16
2018-04-22T04:59:28.211Z,10.29
2018-04-22T05:00:28.134Z,10.34
2018-04-22T05:01:28.052Z,10.23
2018-04-22T05:02:27.983Z,10.34
2018-04-22T05:03:27.902Z,10.34
2018-04-22T05:04:27.892Z,10.34
2018-04-22T05:05:27.747Z,10.19
2018-04-22T05:06:27.701Z,10.28
2018-04-22T05:07:27.595Z,10.22
2018-04-22T05:08:27.614Z,10.28
2018-04-22T05:09:27.444Z,10.31
2018-04-22T05:10:27.421Z,10.37
2018-04-22T05:11:27.295Z,10.44
2018-04-22T05:12:27.333Z,10.41
2018-04-22T05:13:27.140Z,10.46
2018-04-22T05:14:27.140Z,10.49
2018-04-22T05:15:26.988Z,10.60
2018-04-22T05:16:26.949Z,10.58
2018-04-22T05:17:26.835Z,10.58
2018-04-22T05:18:26.858Z,10.63
2018-04-22T05:19:26.680Z,10.66
2018-04-22T05:20:26.606Z,10.69
2018-04-22T05:21:26.533Z,10.77
2018-04-22T05:22:26.507Z,10.88
2018-04-22T05:23:26.377Z,10.83
2018-04-22T05:24:26.410Z,10.85
2018-04-22T05:25:26.228Z,10.85
2018-04-22T05:26:26.221Z,11.00
2018-04-22T05:27:26.077Z,11.02
2018-04-22T05:28:26.137Z,11.02
2018-04-22T05:29:25.937Z,11.02
2018-04-22T05:30:25.944Z,11.10
2018-04-22T05:31:25.775Z,11.08
2018-04-22T05:32:25.752Z,11.14
2018-04-22T05:33:25.624Z,11.21
2018-04-22T05:34:25.662Z,11.21
2018-04-22T05:35:25.470Z,11.18
2018-04-22T05:36:25.484Z,11.16
2018-04-22T05:37:25.317Z,11.28
2018-04-22T05:38:25.383Z,11.35
2018-04-22T05:39:25.204Z,11.39
2018-04-22T05:40:25.194Z,11.34
2018-04-22T05:41:25.016Z,11.32
2018-04-22T05:42:24.998Z,11.47
2018-04-22T05:43:24.867Z,11.50
2018-04-22T05:44:24.926Z,11.51
2018-04-22T05:45:24.715Z,11.61
2018-04-22T05:46:24.720Z,11.71
2018-04-22T05:47:24.565Z,11.76
2018-04-22T05:48:24.533Z,11.78
2018-04-22T05:49:24.416Z,11.81
2018-04-22T05:50:24.441Z,11.95
2018-04-22T05:51:24.261Z,11.94
2018-04-22T05:52:24.249Z,11.98
2018-04-22T05:53:24.110Z,11.97
2018-04-22T05:54:24.163Z,12.02
2018-04-22T05:55:23.960Z,12.08
2018-04-22T05:56:23.972Z,12.12
2018-04-22T05:57:23.814Z,12.19
2018-04-22T05:58:23.855Z,12.24
2018-04-22T05:59:23.657Z,12.31
2018-04-22T06:00:23.701Z,12.39
2018-04-22T06:01:23.508Z,12.44
2018-04-22T06:02:23.507Z,12.52
2018-04-22T06:03:23.367Z,12.48
2018-04-22T06:04:23.414Z,12.55
2018-04-22T06:05:23.207Z,12.61
2018-04-22T06:06:23.224Z,12.55
2018-04-22T06:07:23.055Z,12.59
2018-04-22T06:08:23.133Z,12.63
2018-04-22T06:09:22.916Z,12.64
2018-04-22T06:10:22.942Z,12.78
2018-04-22T06:11:22.757Z,12.74
2018-04-22T06:12:22.753Z,12.85
2018-04-22T06:13:22.614Z,12.89
2018-04-22T06:14:22.662Z,12.86
2018-04-22T06:15:22.460Z,13.02
2018-04-22T06:16:22.472Z,13.07
2018-04-22T06:17:22.365Z,13.02
2018-04-22T06:18:22.383Z,13.15
2018-04-22T06:19:22.157Z,13.07
2018-04-22T06:20:22.192Z,13.17
2018-04-22T06:21:22.009Z,13.17
2018-04-22T06:22:22.002Z,13.25
2018-04-22T06:23:21.856Z,13.40
2018-04-22T06:24:21.914Z,13.40
2018-04-22T06:25:21.700Z,13.36
2018-04-22T06:26:21.720Z,13.48
2018-04-22T06:27:21.554Z,13.50
2018-04-22T06:28:21.686Z,13.61
2018-04-22T06:29:21.406Z,13.61
2018-04-22T06:30:21.330Z,13.77
2018-04-22T06:31:21.261Z,13.77
2018-04-22T06:32:21.249Z,13.74
2018-04-22T06:33:21.102Z,13.87
2018-04-22T06:34:21.169Z,13.95
2018-04-22T06:35:20.957Z,14.03
2018-04-22T06:36:20.925Z,14.10
2018-04-22T06:37:20.808Z,14.20
2018-04-22T06:38:20.883Z,14.27
2018-04-22T06:39:20.658Z,14.27
2018-04-22T06:40:20.749Z,14.38
2018-04-22T06:41:20.524Z,14.36
2018-04-22T06:42:20.505Z,14.41
2018-04-22T06:43:20.362Z,14.52
2018-04-22T06:44:20.415Z,14.49
2018-04-22T06:45:20.210Z,14.61
2018-04-22T06:46:20.224Z,14.60
2018-04-22T06:47:20.062Z,14.69
2018-04-22T06:48:20.135Z,14.84
2018-04-22T06:49:19.914Z,14.90
2018-04-22T06:50:19.943Z,14.94
2018-04-22T06:51:19.765Z,14.94
2018-04-22T06:52:19.852Z,14.98
2018-04-22T06:53:19.623Z,15.08
2018-04-22T06:54:19.664Z,15.12
2018-04-22T06:55:19.470Z,15.18
2018-04-22T06:56:19.484Z,15.15
2018-04-22T06:57:19.325Z,15.20
2018-04-22T06:58:19.380Z,15.24
2018-04-22T06:59:19.173Z,15.24
2018-04-22T07:00:19.198Z,15.30
2018-04-22T07:01:19.026Z,15.34
2018-04-22T07:02:19.101Z,15.48
2018-04-22T07:03:18.877Z,15.53
2018-04-22T07:04:18.916Z,15.49
2018-04-22T07:05:18.733Z,15.57
2018-04-22T07:06:18.828Z,15.63
2018-04-22T07:07:18.588Z,15.60
2018-04-22T07:08:18.633Z,15.61
2018-04-22T07:09:18.449Z,15.73
2018-04-22T07:10:18.451Z,15.68
2018-04-22T07:11:18.286Z,15.78
2018-04-22T07:12:18.214Z,15.85
2018-04-22T07:13:18.261Z,15.85
2018-04-22T07:14:18.079Z,15.96
2018-04-22T07:15:18.073Z,16.03
2018-04-22T07:16:17.930Z,16.10
2018-04-22T07:17:17.982Z,16.15
2018-04-22T07:18:17.781Z,16.29
2018-04-22T07:19:17.707Z,16.30
2018-04-22T07:20:17.798Z,16.47
2018-04-22T07:21:17.553Z,16.50
2018-04-22T07:22:17.610Z,16.59
2018-04-22T07:23:17.418Z,16.65
2018-04-22T07:24:17.448Z,16.88
2018-04-22T07:25:17.322Z,16.84
2018-04-22T07:26:17.337Z,16.95
2018-04-22T07:27:17.115Z,17.07
2018-04-22T07:28:18.159Z,17.21
2018-04-22T07:29:17.024Z,17.17
2018-04-22T07:30:16.905Z,17.33
2018-04-22T07:31:16.949Z,17.46
2018-04-22T07:32:16.752Z,17.66
2018-04-22T07:33:16.760Z,17.69
2018-04-22T07:34:16.607Z,17.88
2018-04-22T07:35:16.677Z,17.96
2018-04-22T07:36:16.461Z,18.00
2018-04-22T07:37:16.481Z,18.06
2018-04-22T07:38:16.319Z,18.09
2018-04-22T07:39:16.393Z,18.16
2018-04-22T07:40:16.172Z,18.43
2018-04-22T07:41:16.198Z,18.50
2018-04-22T07:42:16.028Z,18.67
2018-04-22T07:43:16.110Z,18.76
2018-04-22T07:44:15.883Z,18.92
2018-04-22T07:45:15.919Z,18.92
2018-04-22T07:46:15.738Z,18.99
2018-04-22T07:47:15.841Z,18.98
2018-04-22T07:48:15.596Z,18.97
2018-04-22T07:49:15.639Z,18.92
2018-04-22T07:50:15.451Z,18.83
2018-04-22T07:51:15.551Z,19.02
2018-04-22T07:52:15.311Z,19.08
2018-04-22T07:53:15.258Z,19.01
2018-04-22T07:54:15.173Z,19.21
2018-04-22T07:55:15.101Z,19.28
2018-04-22T07:56:15.025Z,19.36
2018-04-22T07:57:14.963Z,19.53
2018-04-22T07:58:14.888Z,19.53
2018-04-22T07:59:14.992Z,19.63
2018-04-22T08:00:14.768Z,19.76
2018-04-22T08:01:14.684Z,19.90
2018-04-22T08:02:14.607Z,19.98
2018-04-22T08:03:14.530Z,20.06
2018-04-22T08:04:14.456Z,20.13
2018-04-22T08:05:14.528Z,20.26
2018-04-22T08:06:14.319Z,20.47
2018-04-22T08:07:14.333Z,20.62
2018-04-22T08:08:14.175Z,20.50
2018-04-22T08:09:14.106Z,20.66
2018-04-22T08:10:14.041Z,20.69
2018-04-22T08:11:14.053Z,20.89
2018-04-22T08:12:13.889Z,20.90
2018-04-22T08:13:13.965Z,21.04
2018-04-22T08:14:13.750Z,21.09
2018-04-22T08:15:13.773Z,21.20
2018-04-22T08:16:13.621Z,21.23
2018-04-22T08:17:13.683Z,21.26
2018-04-22T08:18:13.474Z,21.41
2018-04-22T08:19:13.497Z,21.41
2018-04-22T08:20:13.340Z,21.49
2018-04-22T08:21:13.402Z,21.48
2018-04-22T08:22:13.202Z,21.56
2018-04-22T08:23:13.121Z,21.63
2018-04-22T08:24:13.223Z,21.76
2018-04-22T08:25:12.991Z,21.85
2018-04-22T08:26:13.037Z,21.82
2018-04-22T08:27:12.848Z,21.84
2018-04-22T08:28:12.988Z,21.69
2018-04-22T08:29:12.712Z,21.75
2018-04-22T08:30:12.750Z,21.92
2018-04-22T08:31:12.574Z,22.01
2018-04-22T08:32:12.560Z,22.00
2018-04-22T08:33:12.434Z,22.16
2018-04-22T08:34:12.471Z,22.26
2018-04-22T08:35:12.306Z,22.38
2018-04-22T08:36:12.280Z,22.47
2018-04-22T08:37:12.160Z,22.56
2018-04-22T08:38:12.193Z,22.54
2018-04-22T08:39:12.024Z,22.63
2018-04-22T08:40:12.107Z,22.65
2018-04-22T08:41:12.025Z,22.69
2018-04-22T08:42:11.813Z,22.79
2018-04-22T08:43:11.748Z,22.81
2018-04-22T08:44:11.747Z,22.81
2018-04-22T08:45:11.615Z,22.83
2018-04-22T08:46:11.661Z,22.90
2018-04-22T08:47:11.476Z,23.11
2018-04-22T08:48:11.469Z,23.11
2018-04-22T08:49:11.341Z,23.18
2018-04-22T08:50:11.380Z,23.15
2018-04-22T08:51:11.205Z,23.18
2018-04-22T08:52:11.192Z,23.11
2018-04-22T08:53:11.069Z,23.18
2018-04-22T08:54:11.100Z,23.20
2018-04-22T08:55:10.941Z,23.15
2018-04-22T08:56:10.910Z,23.40
2018-04-22T08:57:10.802Z,23.40
2018-04-22T08:58:10.821Z,23.48
2018-04-22T08:59:10.665Z,23.49
2018-04-22T09:00:10.628Z,23.60
2018-04-22T09:01:10.530Z,23.63
2018-04-22T09:02:10.554Z,23.72
2018-04-22T09:03:10.396Z,23.80
2018-04-22T09:04:10.348Z,23.87
2018-04-22T09:05:10.263Z,24.08
2018-04-22T09:06:10.258Z,24.12
2018-04-22T09:07:10.129Z,24.25
2018-04-22T09:08:10.169Z,24.29
2018-04-22T09:09:09.993Z,24.45
2018-04-22T09:10:09.981Z,24.47
2018-04-22T09:11:09.864Z,24.56
2018-04-22T09:12:09.891Z,24.60
2018-04-22T09:13:09.732Z,24.62
2018-04-22T09:14:09.699Z,24.59
2018-04-22T09:15:09.594Z,24.67
2018-04-22T09:16:09.609Z,24.64
2018-04-22T09:17:09.462Z,24.71
2018-04-22T09:18:09.419Z,24.67
2018-04-22T09:19:09.328Z,24.76
2018-04-22T09:20:09.330Z,24.76
2018-04-22T09:21:09.196Z,24.66
2018-04-22T09:22:09.239Z,24.80
2018-04-22T09:23:09.063Z,24.93
2018-04-22T09:24:09.045Z,24.83
2018-04-22T09:25:08.932Z,24.90
2018-04-22T09:26:08.959Z,25.08
2018-04-22T09:27:08.796Z,25.17
2018-04-22T09:28:08.770Z,25.19
2018-04-22T09:29:08.670Z,25.28
2018-04-22T09:30:08.677Z,25.28
2018-04-22T09:31:08.553Z,25.47
2018-04-22T09:32:08.489Z,25.42
2018-04-22T09:33:08.419Z,25.64
2018-04-22T09:34:08.399Z,25.82
2018-04-22T09:35:08.277Z,25.90
2018-04-22T09:36:08.306Z,25.90
2018-04-22T09:37:08.144Z,25.99
2018-04-22T09:38:08.119Z,25.97
2018-04-22T09:39:08.015Z,25.87
2018-04-22T09:40:08.032Z,25.74
2018-04-22T09:41:07.886Z,25.72
2018-04-22T09:42:07.843Z,25.67
2018-04-22T09:43:07.800Z,25.64
2018-04-22T09:44:07.749Z,25.56
2018-04-22T09:45:07.624Z,25.57
2018-04-22T09:46:07.660Z,25.60
2018-04-22T09:47:07.494Z,25.71
2018-04-22T09:48:07.469Z,25.87
2018-04-22T09:49:07.363Z,25.90
2018-04-22T09:50:07.378Z,26.04
2018-04-22T09:51:07.232Z,26.05
2018-04-22T09:52:07.185Z,26.20
2018-04-22T09:53:07.104Z,26.27
2018-04-22T09:54:07.100Z,26.24
2018-04-22T09:55:06.975Z,26.31
2018-04-22T09:56:07.010Z,26.15
2018-04-22T09:57:06.847Z,26.21
2018-04-22T09:58:06.819Z,26.35
2018-04-22T09:59:06.719Z,26.43
2018-04-22T10:00:06.726Z,26.43
2018-04-22T10:01:06.589Z,26.55
2018-04-22T10:02:06.522Z,26.64
2018-04-22T10:03:06.637Z,26.75
2018-04-22T10:04:06.394Z,26.72
2018-04-22T10:05:06.446Z,26.68
2018-04-22T10:06:06.275Z,26.77
2018-04-22T10:07:06.358Z,26.72
2018-04-22T10:08:06.139Z,26.61
2018-04-22T10:09:06.075Z,26.53
2018-04-22T10:10:06.012Z,26.45
2018-04-22T10:11:06.076Z,26.62
2018-04-22T10:12:05.878Z,26.50
2018-04-22T10:13:05.991Z,26.57
2018-04-22T10:14:05.764Z,26.64
2018-04-22T10:15:05.903Z,26.67
2018-04-22T10:16:05.627Z,26.75
2018-04-22T10:17:05.712Z,26.76
2018-04-22T10:18:05.499Z,26.80
2018-04-22T10:19:05.622Z,26.82
2018-04-22T10:20:05.374Z,26.71
2018-04-22T10:21:05.310Z,26.89
2018-04-22T10:22:05.441Z,26.84
2018-04-22T10:23:05.182Z,26.67
2018-04-22T10:24:05.248Z,26.77
2018-04-22T10:25:05.056Z,26.82
2018-04-22T10:26:05.160Z,26.68
2018-04-22T10:27:04.924Z,26.80
2018-04-22T10:28:05.078Z,26.97
2018-04-22T10:29:04.801Z,27.17
2018-04-22T10:30:04.878Z,27.20
2018-04-22T10:31:04.677Z,27.31
2018-04-22T10:32:04.790Z,27.41
2018-04-22T10:33:04.553Z,27.51
2018-04-22T10:34:04.601Z,27.67
2018-04-22T10:35:04.420Z,27.83
2018-04-22T10:36:04.546Z,27.84
2018-04-22T10:37:04.295Z,27.82
2018-04-22T10:38:04.429Z,27.80
2018-04-22T10:39:04.808Z,27.83
2018-04-22T10:40:04.250Z,27.87
2018-04-22T10:41:04.046Z,27.64
2018-04-22T10:42:04.144Z,27.50
2018-04-22T10:43:03.913Z,27.39
2018-04-22T10:44:03.955Z,27.19
2018-04-22T10:45:03.792Z,27.32
2018-04-22T10:46:03.863Z,27.27
2018-04-22T10:47:03.669Z,27.39
2018-04-22T10:48:03.773Z,27.57
2018-04-22T10:49:03.536Z,27.64
2018-04-22T10:50:03.687Z,27.77
2018-04-22T10:51:03.412Z,27.82
2018-04-22T10:52:03.495Z,27.67
2018-04-22T10:53:03.287Z,27.61
2018-04-22T10:54:03.404Z,27.46
2018-04-22T10:55:03.159Z,27.54
2018-04-22T10:56:03.318Z,27.44
2018-04-22T10:57:03.036Z,27.38
2018-04-22T10:58:15.004Z,27.35
2018-04-22T10:59:02.912Z,27.39
2018-04-22T11:00:03.037Z,27.29
2018-04-22T11:01:02.785Z,27.34
2018-04-22T11:02:02.853Z,27.32
2018-04-22T11:03:02.661Z,27.36
2018-04-22T11:04:02.760Z,27.34
2018-04-22T11:05:02.537Z,27.41
2018-04-22T11:06:02.470Z,27.45
2018-04-22T11:07:02.412Z,27.61
2018-04-22T11:08:02.480Z,27.65
2018-04-22T11:09:02.286Z,27.70
2018-04-22T11:10:02.391Z,27.87
2018-04-22T11:11:02.158Z,27.94
2018-04-22T11:12:02.302Z,28.09
2018-04-22T11:13:02.036Z,28.20
2018-04-22T11:14:02.111Z,28.34
2018-04-22T11:15:01.909Z,28.47
2018-04-22T11:16:02.021Z,28.43
2018-04-22T11:17:01.784Z,28.39
2018-04-22T11:18:01.946Z,28.39
2018-04-22T11:19:01.662Z,28.44
2018-04-22T11:20:01.743Z,28.56
2018-04-22T11:21:01.533Z,28.54
2018-04-22T11:22:01.687Z,28.59
2018-04-22T11:23:01.411Z,28.61
2018-04-22T11:24:01.567Z,28.69
2018-04-22T11:25:01.283Z,28.47
2018-04-22T11:26:01.372Z,28.35
2018-04-22T11:27:01.164Z,28.22
2018-04-22T11:28:01.285Z,28.17
2018-04-22T11:29:01.037Z,28.11
2018-04-22T11:30:01.198Z,27.99
2018-04-22T11:31:00.919Z,27.98
2018-04-22T11:32:00.894Z,28.06
2018-04-22T11:33:00.787Z,28.16
2018-04-22T11:34:00.808Z,28.29
2018-04-22T11:35:00.664Z,28.41
2018-04-22T11:36:00.719Z,28.56
2018-04-22T11:37:00.547Z,28.63
2018-04-22T11:38:00.525Z,28.61
2018-04-22T11:39:00.414Z,28.54
2018-04-22T11:40:00.437Z,28.69
2018-04-22T11:41:00.296Z,28.65
2018-04-22T11:42:00.395Z,28.56
2018-04-22T11:43:00.176Z,28.53
2018-04-22T11:44:00.158Z,28.68
2018-04-22T11:45:00.138Z,28.75
2018-04-22T11:46:00.075Z,28.93
2018-04-22T11:46:59.925Z,28.84
2018-04-22T11:47:59.861Z,29.00
2018-04-22T11:49:10.439Z,29.07
2018-04-22T11:49:59.736Z,28.91
2018-04-22T11:50:59.694Z,28.90
2018-04-22T11:51:59.617Z,28.61
2018-04-22T11:52:59.604Z,28.50
2018-04-22T11:53:59.488Z,28.43
2018-04-22T11:54:59.512Z,28.46
2018-04-22T11:55:59.366Z,28.39
2018-04-22T11:56:59.324Z,28.31
2018-04-22T11:57:59.242Z,28.17
2018-04-22T11:58:59.233Z,28.13
2018-04-22T11:59:59.239Z,28.01
2018-04-22T12:00:59.147Z,27.83
2018-04-22T12:01:58.995Z,27.89
2018-04-22T12:02:58.953Z,27.76
2018-04-22T12:03:58.873Z,27.64
2018-04-22T12:04:58.865Z,27.73
2018-04-22T12:05:58.749Z,27.57
2018-04-22T12:06:58.777Z,27.39
2018-04-22T12:07:58.629Z,27.32
2018-04-22T12:08:58.587Z,27.35
2018-04-22T12:09:58.511Z,27.45
2018-04-22T12:10:58.491Z,27.57
2018-04-22T12:11:58.375Z,27.69
2018-04-22T12:12:58.407Z,27.84
2018-04-22T12:13:58.255Z,27.79
2018-04-22T12:14:58.215Z,27.92
2018-04-22T12:15:58.132Z,28.11
2018-04-22T12:16:58.073Z,28.16
2018-04-22T12:17:58.004Z,28.29
2018-04-22T12:18:58.037Z,28.41
2018-04-22T12:19:57.884Z,28.44
2018-04-22T12:20:57.847Z,28.39
2018-04-22T12:21:57.763Z,28.49
2018-04-22T12:22:57.753Z,28.39
2018-04-22T12:23:57.634Z,28.47
2018-04-22T12:24:57.592Z,28.50
2018-04-22T12:25:57.574Z,28.62
2018-04-22T12:26:57.448Z,28.73
2018-04-22T12:27:57.484Z,28.68
2018-04-22T12:28:57.329Z,28.75
2018-04-22T12:29:57.292Z,28.59
2018-04-22T12:30:57.204Z,28.51
2018-04-22T12:31:57.205Z,28.16
2018-04-22T12:32:57.076Z,28.20
2018-04-22T12:33:57.117Z,28.22
2018-04-22T12:34:56.957Z,28.22
2018-04-22T12:35:56.925Z,28.36
2018-04-22T12:36:56.830Z,28.49
2018-04-22T12:37:56.906Z,28.54
2018-04-22T12:38:56.709Z,28.73
2018-04-22T12:39:56.750Z,28.91
2018-04-22T12:40:56.585Z,29.09
2018-04-22T12:41:56.556Z,29.13
2018-04-22T12:42:56.461Z,29.23
2018-04-22T12:43:56.461Z,29.46
2018-04-22T12:44:56.337Z,29.48
2018-04-22T12:45:56.388Z,29.56
2018-04-22T12:46:56.215Z,29.60
2018-04-22T12:47:56.185Z,29.83
2018-04-22T12:48:56.092Z,29.84
2018-04-22T12:49:56.096Z,29.93
2018-04-22T12:50:55.968Z,29.97
2018-04-22T12:51:56.007Z,29.96
2018-04-22T12:52:55.848Z,29.96